Terminal Aerodrome Forecast
Issued by NWS Mt. Holly, NJ

Home | Current Version | Previous Version | Text Only | Print | Product List | Glossary On
Versions: 1 2 3 4 5 6 7 8 9 10 11 12 13 14 15 16 17 18 19 20 21 22 23 24 25
000
FTUS41 KPHI 100300 AAB
TAFPHL
TAF AMD
KPHL 100303Z 1003/1106 21010KT P6SM SCT050 BKN100
     FM100600 25004KT P6SM BKN050
     FM100900 07004KT P6SM BKN050
     FM101400 10005KT P6SM BKN045
     FM101900 18007KT P6SM BKN045
     FM110300 23004KT P6SM BKN045=

USA.gov is the U.S. government's official web portal to all federal, state and local government web resources and services.